Main page
METAR-TAF:

METAR-TAF

Airports :

Poznań–Ławica Airport

Poznań, Poland

latitude: 52-25N, longitude: 016-50E, elevation: 86 m

Current weather observation

The report was made 14 minutes ago, at 16:30 UTC
Wind 5 kt from the West
Temperature 20°C
Humidity 60%
Pressure 1009 hPa
Visibility 10 km or more
no clouds below 1500 m and no cumulonimbus

METAR: EPPO 151630Z 26005KT CAVOK 20/12 Q1009

Time: 18:44 (16:44 UTC)

Forecast

The report was made 1 hour and 47 minutes ago, at 14:57 UTC
Forecast valid from 15 at 14 UTC to 16 at 12 UTC
Wind 5 kt from the West/Northwest
Visibility 10 km or more
no clouds below 1500 m and no cumulonimbus
Temporary
from 15 at 15 UTC to 15 at 24 UTC
Visibility: 4000 m
Broken clouds at a height of 3000 ft, Cumulonimbus.
rain showers
Probability 40% :
Temporary
from 16 at 00 UTC to 16 at 05 UTC
Broken clouds at a height of 400 ft

TAF: EPPO 151457Z 1514/1612 29005KT CAVOK TEMPO 1515/1524 4000 SHRA BKN030CB PROB40 TEMPO 1600/1605 BKN004

Weather observations and forecasts of more than 4000 airports (METAR and TAF reports).

The available stations are represented by yellow and red dots on the map.

Hover mouse over dot to see the name of the station.

Then click to see weather observations and forecasts.

To change the map : click on the green buttons with a black cross to zoom in, on the green button with a dash to zoom out, or on the green arrows for adjacent maps.


METAR-TAF: